• Join FlightAware (Why Join?)
  • Login
  • US Flag 
08:07PM EST


 

Airport Tracker/Info


-or-


 

Live Flight TrackerFlight Track Log ✈ JZA8471 ✈ 22-Jul-2014 ✈ CYQR - CYEG

Flight Track Log - Related Links

Times and Time Zones

All times are in EDT time to prevent confusion due to time zone crossing. See the JZA8471 flight status page for this flight to view local times or setup timezone preferences in your user account.

Time Position Orientation Groundspeed Altitude Reporting Facility
EDT Latitude Longitude Course Direction KTS MPH feet Rate Location/Type
10:13AM 50.4000 -104.6667 308° West 80 92 1,800  Level Winnipeg Center
10:14AM 50.4333 -104.7333 308° West 170 196 3,000 1,200 Climbing Winnipeg Center
10:15AM 50.4833 -104.7833 328° Northwest 180 207 4,300 1,080 Climbing Winnipeg Center
10:16AM 50.5167 -104.8500 308° West 200 230 5,200 960 Climbing Winnipeg Center
10:17AM 50.6553 -104.8720 328° Northwest  Level FlightAware Approximate
10:17AM 50.5333 -104.9333 287° West 200 230 6,300  Level Winnipeg Center
10:18AM 50.6958 -104.9583 308° West  Level FlightAware Approximate
10:18AM 50.5667 -104.9833 316° Northwest 200 230 7,200  Level Winnipeg Center
10:19AM 50.6167 -105.0667 313° West 200 230 8,100 840 Climbing Winnipeg Center
10:20AM 50.6500 -105.1333 308° West 210 242 8,900 720 Climbing Winnipeg Center
10:21AM 50.6667 -105.2167 288° West 210 242 9,600 840 Climbing Winnipeg Center
10:22AM 50.7167 -105.2833 320° Northwest 210 242 10,600 780 Climbing Winnipeg Center
10:23AM 50.7500 -105.3667 302° West 210 242 11,200 720 Climbing Winnipeg Center
10:24AM 50.7667 -105.4500 288° West 210 242 12,100 840 Climbing Winnipeg Center
10:25AM 50.8167 -105.5167 320° Northwest 210 242 12,900 720 Climbing Winnipeg Center
10:26AM 50.8500 -105.6000 302° West 210 242 13,600 600 Climbing Winnipeg Center
10:27AM 50.8833 -105.6833 302° West 210 242 14,200 540 Climbing Winnipeg Center
10:28AM 50.9167 -105.7333 317° Northwest 220 253 14,700 600 Climbing Winnipeg Center
10:29AM 50.9667 -105.8333 308° West 220 253 15,500 600 Climbing Winnipeg Center
10:30AM 50.9833 -105.9167 288° West 210 242 15,900 480 Climbing Winnipeg Center
10:31AM 51.0000 -105.9333 328° Northwest 210 242 16,400 540 Climbing Edmonton Center
10:32AM 51.0333 -106.0167 302° West 210 242 16,900 480 Climbing Edmonton Center
10:33AM 51.0833 -106.1000 314° West 210 242 17,400 480 Climbing Edmonton Center
10:34AM 51.1167 -106.1500 317° Northwest 210 242 17,900 360 Climbing Edmonton Center
10:35AM 51.1500 -106.2333 303° West 210 242 18,200 360 Climbing Edmonton Center
10:36AM 51.1833 -106.3167 303° West 210 242 18,700 480 Climbing Edmonton Center
10:37AM 51.2167 -106.4000 303° West 200 230 19,200 480 Climbing Edmonton Center
10:38AM 51.2500 -106.4667 309° West 200 230 19,700 360 Climbing Edmonton Center
10:39AM 51.2833 -106.5333 309° West 200 230 20,000 120 Climbing Edmonton Center
10:40AM 51.3167 -106.6167 303° West 210 242 20,000  Level Edmonton Center
10:41AM 51.3500 -106.7000 303° West 220 253 20,000  Level Edmonton Center
10:42AM 51.3667 -106.8000 285° West 230 265 20,000  Level Edmonton Center
10:43AM 51.4000 -106.8833 303° West 230 265 20,000  Level Edmonton Center
10:44AM 51.4500 -106.9667 314° West 230 265 20,000  Level Edmonton Center
10:45AM 51.4833 -107.0500 303° West 240 276 20,000  Level Edmonton Center
10:46AM 51.5167 -107.1333 303° West 240 276 20,000  Level Edmonton Center
10:47AM 51.5833 -107.2833 306° West 240 276 20,000  Level Winnipeg Center
10:48AM 51.6333 -107.3667 314° West 240 276 20,000  Level Winnipeg Center
10:49AM 51.6500 -107.4667 285° West 240 276 20,000  Level Winnipeg Center
10:50AM 51.7000 -107.5500 314° West 240 276 20,000  Level Winnipeg Center
10:51AM 51.7167 -107.6333 288° West 240 276 20,000  Level Winnipeg Center
10:52AM 51.7667 -107.7333 309° West 240 276 20,000  Level Winnipeg Center
10:53AM 51.8000 -107.8167 303° West 240 276 20,000  Level Winnipeg Center
10:54AM 51.8500 -107.9167 309° West 240 276 20,000  Level Winnipeg Center
10:55AM 51.8500 -107.9500 270° West 240 276 20,000  Level Edmonton Center
10:56AM 51.8833 -108.0333 303° West 240 276 20,000  Level Edmonton Center
10:57AM 51.9333 -108.1167 314° West 240 276 20,000  Level Edmonton Center
10:58AM 51.9667 -108.2000 303° West 240 276 20,000  Level Edmonton Center
10:59AM 52.0167 -108.3167 305° West 240 276 20,000  Level Edmonton Center
11:00AM 52.0500 -108.4000 303° West 240 276 20,000  Level Edmonton Center
11:01AM 52.0833 -108.4833 303° West 240 276 20,000  Level Edmonton Center
11:02AM 52.1333 -108.5667 314° West 240 276 20,000  Level Edmonton Center
11:03AM 52.1500 -108.6500 288° West 240 276 20,000  Level Edmonton Center
11:04AM 52.1833 -108.7667 295° West 240 276 20,000  Level Edmonton Center
11:05AM 52.2333 -108.8500 314° West 240 276 20,000  Level Edmonton Center
11:06AM 52.2667 -108.9333 303° West 240 276 20,000  Level Edmonton Center
11:07AM 52.3000 -109.0500 295° West 240 276 20,000  Level Edmonton Center
11:08AM 52.3500 -109.1500 309° West 240 276 20,000  Level Edmonton Center
11:09AM 52.3667 -109.2333 288° West 240 276 20,000  Level Edmonton Center
11:10AM 52.4167 -109.3833 299° West 250 288 20,000  Level Winnipeg Center
11:11AM 52.4667 -109.4833 309° West 250 288 20,000  Level Winnipeg Center
11:12AM 52.5000 -109.5833 299° West 250 288 20,000  Level Winnipeg Center
11:13AM 52.5500 -109.6667 315° West 250 288 20,000  Level Winnipeg Center
11:14AM 52.5500 -109.7167 270° West 250 288 20,000  Level Edmonton Center
11:15AM 52.5833 -109.8000 303° West 250 288 20,000  Level Edmonton Center
11:16AM 52.6500 -109.9500 306° West 250 288 20,000  Level Winnipeg Center
11:17AM 52.6833 -110.0500 299° West 250 288 20,000  Level Winnipeg Center
11:18AM 52.7000 -110.1667 283° West 240 276 20,000  Level Winnipeg Center
11:19AM 52.7000 -110.2167 270° West 250 288 20,000  Level Edmonton Center
11:20AM 52.7167 -110.3333 283° West 250 288 20,000  Level Edmonton Center
11:21AM 52.7500 -110.4333 299° West 250 288 20,000  Level Edmonton Center
11:22AM 52.7500 -110.5500 270° West 250 288 20,000  Level Edmonton Center
11:23AM 52.7667 -110.6667 283° West 250 288 20,000  Level Edmonton Center
11:24AM 52.7833 -110.7833 283° West 250 288 20,000  Level Edmonton Center
11:25AM 52.8000 -110.9000 283° West 250 288 20,000  Level Edmonton Center
11:26AM 52.8167 -111.0167 283° West 250 288 20,000  Level Edmonton Center
11:27AM 52.8333 -111.1167 285° West 250 288 20,000  Level Edmonton Center
11:28AM 52.8333 -111.2333 270° West 250 288 20,000  Level Edmonton Center
11:29AM 52.8667 -111.3500 295° West 250 288 20,000  Level Edmonton Center
11:30AM 52.8833 -111.4667 283° West 260 299 20,000  Level Edmonton Center
11:31AM 52.8833 -111.5833 270° West 260 299 20,000  Level Edmonton Center
11:32AM 52.9000 -111.7333 280° West 250 288 20,000 -120 Level Edmonton Center
11:33AM 52.9167 -111.8500 283° West 260 299 19,800 -300 Descending Edmonton Center
11:34AM 52.9333 -111.9500 285° West 260 299 19,500 -300 Descending Edmonton Center
11:35AM 52.9500 -112.0667 283° West 270 311 19,200 -300 Descending Edmonton Center
11:36AM 52.9667 -112.1833 283° West 270 311 18,900 -300 Descending Edmonton Center
11:37AM 52.9833 -112.3333 281° West 270 311 18,600 -300 Descending Edmonton Center
11:38AM 52.9833 -112.4500 270° West 270 311 18,300 -360 Descending Edmonton Center
11:39AM 53.0167 -112.5833 293° West 280 322 17,900 -960 Descending Edmonton Center
11:40AM 53.0333 -112.7167 282° West 280 322 16,400 -1,560 Descending Edmonton Center
11:41AM 53.0500 -112.8167 286° West 290 334 14,800 -1,740 Descending Edmonton Center
11:42AM 53.0500 -112.9667 270° West 280 322 13,000 -1,800 Descending Edmonton Center
11:43AM 53.0833 -113.0833 295° West 280 322 11,300 -1,800 Descending Edmonton Center
11:44AM 53.0833 -113.2333 270° West 270 311 9,500 -1,680 Descending Edmonton Center
11:45AM 53.1000 -113.3500 283° West 260 299 8,000 -1,320 Descending Edmonton Center
11:46AM 53.1167 -113.4667 283° West 250 288 6,900 -1,080 Descending Edmonton Center
11:47AM 53.1333 -113.5833 283° West 200 230 5,900 -1,020 Descending Edmonton Center
11:48AM 53.1667 -113.6167 329° Northwest 200 230 4,900 -960 Descending Edmonton Center
11:49AM 53.2000 -113.6833 310° West 190 219 4,000 -900 Descending Edmonton Center
11:50AM 53.2500 -113.6667 11° North 150 173 3,200 -840 Descending Edmonton Center
11:51AM 53.2833 -113.6333 31° Northeast 120 138 2,400 -480 Descending Edmonton Center
11:52AM 53.3167 -113.5833 42° Northeast 110 127 2,300 -120 Descending Edmonton Center